Terminal Aerodrome Forecast
Issued by NWS Spokane, WA

Home | Current Version | Previous Version | Text Only | Print | Product List | Glossary On
Versions: 1 2 3 4 5 6 7 8 9 10 11 12 13 14 15 16 17 18 19 20 21 22 23 24 25 26 27 28
000
FTUS46 KOTX 250523
TAFLWS
TAF
KLWS 250523Z 2506/2606 29004KT P6SM -SHRA OVC040
     FM250800 22004KT P6SM VCSH SCT020 OVC045
     FM251700 30004KT P6SM VCSH SCT050 BKN080
     FM260200 24004KT P6SM SCT070 BKN120=

USA.gov is the U.S. government's official web portal to all federal, state and local government web resources and services.